createdAt,value
2022-08-03T00:00:47.414Z,0.00
2022-08-03T00:01:47.333Z,0.00
2022-08-03T00:02:47.282Z,0.00
2022-08-03T00:03:47.185Z,0.00
2022-08-03T00:04:47.106Z,0.00
2022-08-03T00:06:04.378Z,0.00
2022-08-03T00:06:46.957Z,0.00
2022-08-03T00:07:46.889Z,0.00
2022-08-03T00:08:46.809Z,0.00
2022-08-03T00:09:46.727Z,0.00
2022-08-03T00:10:46.658Z,0.00
2022-08-03T00:11:46.581Z,0.00
2022-08-03T00:12:46.505Z,0.00
2022-08-03T00:13:46.431Z,0.00
2022-08-03T00:14:46.357Z,0.00
2022-08-03T00:15:46.276Z,0.00
2022-08-03T00:16:46.205Z,0.00
2022-08-03T00:17:52.017Z,0.00
2022-08-03T00:18:46.053Z,0.00
2022-08-03T00:19:45.978Z,0.00
2022-08-03T00:20:45.905Z,0.00
2022-08-03T00:21:45.829Z,0.00
2022-08-03T00:22:45.753Z,0.00
2022-08-03T00:23:51.652Z,0.00
2022-08-03T00:24:45.605Z,0.00
2022-08-03T00:25:45.528Z,0.00
2022-08-03T00:26:45.451Z,0.00
2022-08-03T00:27:45.377Z,0.00
2022-08-03T00:28:45.302Z,0.00
2022-08-03T00:29:59.670Z,0.00
2022-08-03T00:30:45.150Z,0.00
2022-08-03T00:31:52.738Z,0.00
2022-08-03T00:32:45.460Z,0.00
2022-08-03T00:33:57.925Z,0.00
2022-08-03T00:34:58.666Z,0.00
2022-08-03T00:35:51.029Z,0.00
2022-08-03T00:36:44.699Z,0.00
2022-08-03T00:37:44.624Z,0.00
2022-08-03T00:38:44.548Z,0.00
2022-08-03T00:39:44.472Z,0.00
2022-08-03T00:40:44.394Z,0.00
2022-08-03T00:41:44.317Z,0.00
2022-08-03T00:42:44.244Z,0.00
2022-08-03T00:43:44.169Z,0.00
2022-08-03T00:44:44.096Z,0.00
2022-08-03T00:45:44.017Z,0.00
2022-08-03T00:46:43.940Z,0.00
2022-08-03T00:47:43.864Z,0.00
2022-08-03T00:48:43.789Z,0.00
2022-08-03T00:49:43.711Z,0.00
2022-08-03T00:50:43.641Z,0.00
2022-08-03T00:51:43.567Z,0.00
2022-08-03T00:52:43.488Z,0.00
2022-08-03T00:53:43.417Z,0.00
2022-08-03T00:54:43.337Z,0.00
2022-08-03T00:55:43.258Z,0.00
2022-08-03T00:57:00.131Z,0.00
2022-08-03T00:57:43.111Z,0.00
2022-08-03T00:58:43.034Z,0.00
2022-08-03T00:59:43.065Z,0.00
2022-08-03T01:00:42.884Z,0.00
2022-08-03T01:01:42.853Z,0.00
2022-08-03T01:02:42.732Z,0.00
2022-08-03T01:03:42.652Z,0.00
2022-08-03T01:04:42.581Z,0.00
2022-08-03T01:05:42.503Z,0.00
2022-08-03T01:06:42.426Z,0.00
2022-08-03T01:07:42.352Z,0.00
2022-08-03T01:08:42.286Z,0.00
2022-08-03T01:09:42.198Z,0.00
2022-08-03T01:10:42.121Z,0.00
2022-08-03T01:12:00.701Z,0.00
2022-08-03T01:12:41.974Z,0.00
2022-08-03T01:14:03.531Z,0.00
2022-08-03T01:14:41.819Z,0.00
2022-08-03T01:15:41.744Z,0.00
2022-08-03T01:16:41.674Z,0.00
2022-08-03T01:17:41.652Z,0.00
2022-08-03T01:18:41.514Z,0.00
2022-08-03T01:19:41.439Z,0.00
2022-08-03T01:20:41.366Z,0.00
2022-08-03T01:21:41.290Z,0.00
2022-08-03T01:22:41.218Z,0.00
2022-08-03T01:23:41.137Z,0.00
2022-08-03T01:24:41.065Z,0.00
2022-08-03T01:25:40.984Z,0.00
2022-08-03T01:26:40.907Z,0.00
2022-08-03T01:27:40.830Z,0.00
2022-08-03T01:28:40.755Z,0.00
2022-08-03T01:29:40.682Z,0.00
2022-08-03T01:30:40.605Z,0.00
2022-08-03T01:32:58.181Z,0.00
2022-08-03T01:32:59.859Z,0.00
2022-08-03T01:33:40.377Z,0.00
2022-08-03T01:34:40.299Z,0.00
2022-08-03T01:35:40.221Z,0.00
2022-08-03T01:36:40.145Z,0.00
2022-08-03T01:37:40.068Z,0.00
2022-08-03T01:38:39.994Z,0.00
2022-08-03T01:39:39.917Z,0.00
2022-08-03T01:40:39.842Z,0.00
2022-08-03T01:41:39.762Z,0.00
2022-08-03T01:42:39.689Z,0.00
2022-08-03T01:44:27.005Z,0.00
2022-08-03T01:44:39.535Z,0.00
2022-08-03T01:45:39.458Z,0.00
2022-08-03T01:46:39.386Z,0.00
2022-08-03T01:47:39.305Z,0.00
2022-08-03T01:48:39.238Z,0.00
2022-08-03T01:49:39.277Z,0.00
2022-08-03T01:50:39.078Z,0.00
2022-08-03T01:51:58.401Z,0.00
2022-08-03T01:52:38.931Z,0.00
2022-08-03T01:53:38.848Z,0.00
2022-08-03T01:54:38.773Z,0.00
2022-08-03T01:55:38.697Z,0.00
2022-08-03T01:56:38.621Z,0.00
2022-08-03T01:58:05.656Z,0.00
2022-08-03T01:58:38.468Z,0.00
2022-08-03T01:59:38.391Z,0.00
2022-08-03T02:00:38.413Z,0.00
2022-08-03T02:02:27.810Z,0.00
2022-08-03T02:02:38.560Z,0.00
2022-08-03T02:03:38.088Z,0.00
2022-08-03T02:04:38.008Z,0.00
2022-08-03T02:05:37.932Z,0.00
2022-08-03T02:07:01.436Z,0.00
2022-08-03T02:07:37.786Z,0.00
2022-08-03T02:08:37.705Z,0.00
2022-08-03T02:09:37.628Z,0.00
2022-08-03T02:10:37.553Z,0.00
2022-08-03T02:11:37.473Z,0.00
2022-08-03T02:12:37.396Z,0.00
2022-08-03T02:13:37.320Z,0.00
2022-08-03T02:14:37.243Z,0.00
2022-08-03T02:15:37.171Z,0.00
2022-08-03T02:16:37.096Z,0.00
2022-08-03T02:17:39.449Z,0.00
2022-08-03T02:18:36.939Z,0.00
2022-08-03T02:19:36.863Z,0.00
2022-08-03T02:20:36.786Z,0.00
2022-08-03T02:21:57.140Z,0.00
2022-08-03T02:22:36.634Z,0.00
2022-08-03T02:23:36.555Z,0.00
2022-08-03T02:24:36.480Z,0.00
2022-08-03T02:25:36.402Z,0.00
2022-08-03T02:26:36.330Z,0.00
2022-08-03T02:27:39.477Z,0.00
2022-08-03T02:28:36.172Z,0.00
2022-08-03T02:29:39.142Z,0.00
2022-08-03T02:30:36.018Z,0.00
2022-08-03T02:31:35.941Z,0.00
2022-08-03T02:32:35.864Z,0.00
2022-08-03T02:33:35.789Z,0.00
2022-08-03T02:34:35.714Z,0.00
2022-08-03T02:35:35.636Z,0.00
2022-08-03T02:36:35.561Z,0.00
2022-08-03T02:37:35.486Z,0.00
2022-08-03T02:38:35.405Z,0.00
2022-08-03T02:39:35.328Z,0.00
2022-08-03T02:40:35.251Z,0.00
2022-08-03T02:41:35.179Z,0.00
2022-08-03T02:42:35.097Z,0.00
2022-08-03T02:43:57.695Z,0.00
2022-08-03T02:44:34.946Z,0.00
2022-08-03T02:45:34.871Z,0.00
2022-08-03T02:46:34.791Z,0.00
2022-08-03T02:47:53.952Z,0.00
2022-08-03T02:48:34.641Z,0.00
2022-08-03T02:49:40.789Z,0.00
2022-08-03T02:50:34.485Z,0.00
2022-08-03T02:51:34.409Z,0.00
2022-08-03T02:52:34.333Z,0.00
2022-08-03T02:53:34.255Z,0.00
2022-08-03T02:54:34.177Z,0.00
2022-08-03T02:55:34.102Z,0.00
2022-08-03T02:56:34.023Z,0.00
2022-08-03T02:57:33.949Z,0.00
2022-08-03T02:58:33.871Z,0.00
2022-08-03T02:59:33.797Z,0.00
2022-08-03T03:00:33.771Z,0.00
2022-08-03T03:01:33.688Z,0.00
2022-08-03T03:02:33.563Z,0.00
2022-08-03T03:03:35.970Z,0.00
2022-08-03T03:04:33.576Z,0.00
2022-08-03T03:05:56.803Z,0.00
2022-08-03T03:06:33.253Z,0.00
2022-08-03T03:07:35.368Z,0.00
2022-08-03T03:08:33.105Z,0.00
2022-08-03T03:09:40.454Z,0.00
2022-08-03T03:10:32.950Z,0.00
2022-08-03T03:11:32.871Z,0.00
2022-08-03T03:12:32.794Z,0.00
2022-08-03T03:13:32.720Z,0.00
2022-08-03T03:14:33.854Z,0.00
2022-08-03T03:15:32.568Z,0.00
2022-08-03T03:16:32.489Z,0.00
2022-08-03T03:17:32.411Z,0.00
2022-08-03T03:18:32.335Z,0.00
2022-08-03T03:19:32.258Z,0.00
2022-08-03T03:20:32.178Z,0.00
2022-08-03T03:21:32.102Z,0.00
2022-08-03T03:22:32.025Z,0.00
2022-08-03T03:23:31.949Z,0.00
2022-08-03T03:24:31.871Z,0.00
2022-08-03T03:25:31.800Z,0.00
2022-08-03T03:26:31.719Z,0.00
2022-08-03T03:27:31.644Z,0.00
2022-08-03T03:28:31.564Z,0.00
2022-08-03T03:29:31.487Z,0.00
2022-08-03T03:30:31.410Z,0.00
2022-08-03T03:31:31.333Z,0.00
2022-08-03T03:32:31.258Z,0.00
2022-08-03T03:33:31.180Z,0.00
2022-08-03T03:34:31.101Z,0.00
2022-08-03T03:35:31.026Z,0.00
2022-08-03T03:36:30.945Z,0.00
2022-08-03T03:37:30.879Z,0.00
2022-08-03T03:38:30.791Z,0.00
2022-08-03T03:39:30.719Z,0.00
2022-08-03T03:40:30.638Z,0.00
2022-08-03T03:41:30.569Z,0.00
2022-08-03T03:42:30.484Z,0.00
2022-08-03T03:43:30.408Z,0.00
2022-08-03T03:44:30.341Z,0.00
2022-08-03T03:45:30.260Z,0.00
2022-08-03T03:46:30.181Z,0.00
2022-08-03T03:47:32.635Z,0.00
2022-08-03T03:48:30.022Z,0.00
2022-08-03T03:49:29.990Z,0.00
2022-08-03T03:50:29.870Z,0.00
2022-08-03T03:51:29.793Z,0.00
2022-08-03T03:52:29.715Z,0.00
2022-08-03T03:53:29.635Z,0.00
2022-08-03T03:54:29.631Z,0.00
2022-08-03T03:55:29.482Z,0.00
2022-08-03T03:56:29.406Z,0.00
2022-08-03T03:57:29.465Z,0.00
2022-08-03T03:58:29.247Z,0.00
2022-08-03T03:59:29.177Z,0.00
2022-08-03T04:00:29.124Z,0.00
2022-08-03T04:01:29.020Z,0.00
2022-08-03T04:02:28.942Z,0.00
2022-08-03T04:03:28.870Z,0.00
2022-08-03T04:04:28.785Z,0.00
2022-08-03T04:05:28.719Z,0.00
2022-08-03T04:06:28.629Z,0.00
2022-08-03T04:07:28.555Z,0.00
2022-08-03T04:08:28.477Z,0.00
2022-08-03T04:09:28.406Z,0.00
2022-08-03T04:10:28.323Z,0.00
2022-08-03T04:11:29.346Z,0.00
2022-08-03T04:12:28.167Z,0.00
2022-08-03T04:13:28.096Z,0.00
2022-08-03T04:14:28.018Z,0.00
2022-08-03T04:15:27.940Z,0.00
2022-08-03T04:16:27.874Z,0.00
2022-08-03T04:17:27.785Z,0.00
2022-08-03T04:18:27.705Z,0.00
2022-08-03T04:19:27.626Z,0.00
2022-08-03T04:20:27.552Z,0.00
2022-08-03T04:21:27.473Z,0.00
2022-08-03T04:22:27.396Z,0.00
2022-08-03T04:23:27.322Z,0.00
2022-08-03T04:24:27.241Z,0.00
2022-08-03T04:25:27.164Z,0.00
2022-08-03T04:26:27.083Z,0.00
2022-08-03T04:27:27.008Z,0.00
2022-08-03T04:28:30.741Z,0.00
2022-08-03T04:29:26.861Z,0.00
2022-08-03T04:30:26.775Z,0.00
2022-08-03T04:31:26.702Z,5.63
2022-08-03T04:32:26.622Z,5.63
2022-08-03T04:33:29.676Z,5.63
2022-08-03T04:34:26.469Z,5.63
2022-08-03T04:35:26.394Z,5.63
2022-08-03T04:36:26.315Z,5.63
2022-08-03T04:37:26.239Z,5.63
2022-08-03T04:38:26.159Z,5.63
2022-08-03T04:39:26.083Z,5.63
2022-08-03T04:40:26.002Z,5.63
2022-08-03T04:41:25.930Z,5.63
2022-08-03T04:42:25.853Z,5.63
2022-08-03T04:43:25.778Z,5.63
2022-08-03T04:44:28.602Z,5.63
2022-08-03T04:45:25.617Z,5.63
2022-08-03T04:46:25.541Z,5.63
2022-08-03T04:47:25.466Z,5.63
2022-08-03T04:48:25.390Z,5.63
2022-08-03T04:49:25.374Z,5.63
2022-08-03T04:50:25.233Z,5.63
2022-08-03T04:51:25.155Z,5.63
2022-08-03T04:52:25.077Z,5.63
2022-08-03T04:53:25.002Z,5.63
2022-08-03T04:54:24.919Z,5.63
2022-08-03T04:55:24.844Z,5.63
2022-08-03T04:56:24.766Z,5.63
2022-08-03T04:57:24.694Z,5.63
2022-08-03T04:58:24.611Z,5.63
2022-08-03T04:59:24.536Z,5.63
2022-08-03T05:00:24.456Z,5.63
2022-08-03T05:01:24.443Z,5.63
2022-08-03T05:02:24.305Z,5.63
2022-08-03T05:03:25.234Z,5.63
2022-08-03T05:04:24.155Z,5.63
2022-08-03T05:05:24.076Z,5.63
2022-08-03T05:06:25.135Z,5.63
2022-08-03T05:07:25.100Z,5.63
2022-08-03T05:08:27.693Z,5.63
2022-08-03T05:09:46.092Z,5.63
2022-08-03T05:10:23.688Z,5.63
2022-08-03T05:11:23.615Z,5.63
2022-08-03T05:12:23.533Z,5.63
2022-08-03T05:13:23.454Z,5.63
2022-08-03T05:14:28.387Z,5.63
2022-08-03T05:15:23.300Z,11.25
2022-08-03T05:16:23.228Z,11.25
2022-08-03T05:17:23.155Z,11.25
2022-08-03T05:18:23.071Z,11.25
2022-08-03T05:19:22.992Z,11.25
2022-08-03T05:20:22.916Z,11.25
2022-08-03T05:21:22.840Z,11.25
2022-08-03T05:22:22.763Z,11.25
2022-08-03T05:23:22.686Z,11.25
2022-08-03T05:24:22.607Z,11.25
2022-08-03T05:25:27.352Z,11.25
2022-08-03T05:26:22.454Z,11.25
2022-08-03T05:27:22.380Z,11.25
2022-08-03T05:28:22.299Z,11.25
2022-08-03T05:29:22.224Z,11.25
2022-08-03T05:30:26.758Z,11.25
2022-08-03T05:31:22.069Z,11.25
2022-08-03T05:32:22.248Z,11.25
2022-08-03T05:33:21.918Z,11.25
2022-08-03T05:34:21.838Z,11.25
2022-08-03T05:35:57.348Z,11.25
2022-08-03T05:36:21.684Z,11.25
2022-08-03T05:37:21.615Z,11.25
2022-08-03T05:38:23.840Z,11.25
2022-08-03T05:39:21.458Z,11.25
2022-08-03T05:40:21.378Z,11.25
2022-08-03T05:41:36.610Z,11.25
2022-08-03T05:42:21.226Z,11.25
2022-08-03T05:43:21.149Z,11.25
2022-08-03T05:44:21.072Z,11.25
2022-08-03T05:45:23.281Z,11.25
2022-08-03T05:46:20.916Z,11.25
2022-08-03T05:47:20.841Z,11.25
2022-08-03T05:48:20.766Z,16.88
2022-08-03T05:49:20.762Z,16.88
2022-08-03T05:50:20.608Z,16.88
2022-08-03T05:51:20.534Z,16.88
2022-08-03T05:52:20.457Z,16.88
2022-08-03T05:53:20.382Z,16.88
2022-08-03T05:54:20.306Z,16.88
2022-08-03T05:55:20.231Z,16.88
2022-08-03T05:56:20.150Z,16.88
2022-08-03T05:57:20.077Z,16.88
2022-08-03T05:58:19.999Z,16.88
2022-08-03T05:59:37.740Z,16.88
2022-08-03T06:00:19.847Z,16.88
2022-08-03T06:01:19.807Z,16.88
2022-08-03T06:02:19.693Z,16.88
2022-08-03T06:03:19.624Z,16.88
2022-08-03T06:04:19.537Z,16.88
2022-08-03T06:05:19.465Z,16.88
2022-08-03T06:06:19.387Z,16.88
2022-08-03T06:07:19.309Z,16.88
2022-08-03T06:08:19.232Z,16.88
2022-08-03T06:09:19.159Z,16.88
2022-08-03T06:10:37.209Z,16.88
2022-08-03T06:11:19.010Z,16.88
2022-08-03T06:12:19.239Z,16.88
2022-08-03T06:13:18.851Z,16.88
2022-08-03T06:14:18.783Z,16.88
2022-08-03T06:15:18.708Z,16.88
2022-08-03T06:16:18.634Z,16.88
2022-08-03T06:17:18.549Z,16.88
2022-08-03T06:18:18.470Z,22.50
2022-08-03T06:19:18.399Z,22.50
2022-08-03T06:20:18.319Z,22.50
2022-08-03T06:21:18.245Z,22.50
2022-08-03T06:22:18.334Z,22.50
2022-08-03T06:23:18.746Z,22.50
2022-08-03T06:24:18.023Z,22.50
2022-08-03T06:25:17.937Z,22.50
2022-08-03T06:26:17.864Z,22.50
2022-08-03T06:27:17.785Z,22.50
2022-08-03T06:28:53.203Z,22.50
2022-08-03T06:29:17.642Z,22.50
2022-08-03T06:30:21.066Z,22.50
2022-08-03T06:31:17.482Z,22.50
2022-08-03T06:32:17.562Z,22.50
2022-08-03T06:33:17.334Z,22.50
2022-08-03T06:34:32.394Z,22.50
2022-08-03T06:35:17.180Z,22.50
2022-08-03T06:36:17.106Z,22.50
2022-08-03T06:37:17.032Z,22.50
2022-08-03T06:38:16.951Z,28.13
2022-08-03T06:39:16.875Z,28.13
2022-08-03T06:40:16.798Z,28.13
2022-08-03T06:41:16.727Z,28.13
2022-08-03T06:42:16.865Z,28.13
2022-08-03T06:43:16.575Z,28.13
2022-08-03T06:44:16.498Z,28.13
2022-08-03T06:45:16.426Z,28.13
2022-08-03T06:46:16.347Z,28.13
2022-08-03T06:47:16.278Z,28.13
2022-08-03T06:48:16.194Z,28.13
2022-08-03T06:49:16.206Z,33.75
2022-08-03T06:50:16.922Z,33.75
2022-08-03T06:51:15.969Z,33.75
2022-08-03T06:52:37.490Z,33.75
2022-08-03T06:53:21.209Z,33.75
2022-08-03T06:54:15.746Z,33.75
2022-08-03T06:55:15.667Z,39.38
2022-08-03T06:56:15.596Z,39.38
2022-08-03T06:57:15.518Z,39.38
2022-08-03T06:58:15.445Z,39.38
2022-08-03T07:00:07.919Z,39.38
2022-08-03T07:00:15.292Z,39.38
2022-08-03T07:01:15.275Z,45.00
2022-08-03T07:02:19.008Z,45.00
2022-08-03T07:03:15.068Z,45.00
2022-08-03T07:04:14.995Z,45.00
2022-08-03T07:05:14.918Z,50.63
2022-08-03T07:06:14.840Z,50.63
2022-08-03T07:07:14.770Z,50.63
2022-08-03T07:08:14.695Z,50.63
2022-08-03T07:09:14.616Z,56.25
2022-08-03T07:10:14.542Z,56.25
2022-08-03T07:11:14.472Z,56.25
2022-08-03T07:12:14.608Z,56.25
2022-08-03T07:13:14.320Z,56.25
2022-08-03T07:14:14.248Z,61.88
2022-08-03T07:15:20.156Z,67.50
2022-08-03T07:16:14.097Z,67.50
2022-08-03T07:17:14.024Z,67.50
2022-08-03T07:18:13.967Z,73.13
2022-08-03T07:19:13.872Z,73.13
2022-08-03T07:20:13.797Z,73.13
2022-08-03T07:21:13.727Z,78.75
2022-08-03T07:22:13.651Z,84.38
2022-08-03T07:23:19.152Z,84.38
2022-08-03T07:24:13.502Z,90.00
2022-08-03T07:25:13.435Z,90.00
2022-08-03T07:26:13.359Z,101.25
2022-08-03T07:27:13.285Z,101.25
2022-08-03T07:28:13.207Z,106.88
2022-08-03T07:29:15.173Z,106.88
2022-08-03T07:30:13.058Z,106.88
2022-08-03T07:31:12.983Z,112.50
2022-08-03T07:32:12.913Z,123.75
2022-08-03T07:33:12.834Z,129.38
2022-08-03T07:34:12.763Z,135.00
2022-08-03T07:35:24.514Z,135.00
2022-08-03T07:36:12.617Z,146.25
2022-08-03T07:37:12.549Z,151.88
2022-08-03T07:38:12.470Z,151.88
2022-08-03T07:39:16.470Z,157.50
2022-08-03T07:40:12.324Z,157.50
2022-08-03T07:41:12.249Z,157.50
2022-08-03T07:42:12.178Z,157.50
2022-08-03T07:43:12.103Z,163.13
2022-08-03T07:44:12.032Z,163.13
2022-08-03T07:45:13.961Z,168.75
2022-08-03T07:46:11.885Z,168.75
2022-08-03T07:47:22.503Z,168.75
2022-08-03T07:48:12.606Z,174.38
2022-08-03T07:49:11.709Z,174.38
2022-08-03T07:50:11.596Z,163.13
2022-08-03T07:51:11.526Z,174.38
2022-08-03T07:52:11.517Z,174.38
2022-08-03T07:53:11.377Z,180.00
2022-08-03T07:54:11.305Z,180.00
2022-08-03T07:55:11.234Z,180.00
2022-08-03T07:56:11.455Z,180.00
2022-08-03T07:57:11.087Z,185.63
2022-08-03T07:58:11.020Z,185.63
2022-08-03T07:59:10.944Z,185.63
2022-08-03T08:00:10.871Z,185.63
2022-08-03T08:01:10.866Z,185.63
2022-08-03T08:02:10.779Z,191.25
2022-08-03T08:03:10.656Z,191.25
2022-08-03T08:04:10.590Z,191.25
2022-08-03T08:05:10.512Z,191.25
2022-08-03T08:06:10.442Z,191.25
2022-08-03T08:07:10.373Z,191.25
2022-08-03T08:08:10.303Z,191.25
2022-08-03T08:09:10.227Z,191.25
2022-08-03T08:10:10.361Z,191.25
2022-08-03T08:11:10.084Z,196.88
2022-08-03T08:12:15.090Z,196.88
2022-08-03T08:13:09.943Z,196.88
2022-08-03T08:14:09.877Z,196.88
2022-08-03T08:15:09.802Z,196.88
2022-08-03T08:16:09.734Z,196.88
2022-08-03T08:17:09.664Z,202.50
2022-08-03T08:18:09.591Z,202.50
2022-08-03T08:19:09.520Z,202.50
2022-08-03T08:20:09.451Z,202.50
2022-08-03T08:21:09.379Z,202.50
2022-08-03T08:22:09.309Z,202.50
2022-08-03T08:23:19.275Z,208.13
2022-08-03T08:24:13.410Z,208.13
2022-08-03T08:25:09.100Z,208.13
2022-08-03T08:26:09.028Z,208.13
2022-08-03T08:27:08.956Z,208.13
2022-08-03T08:28:30.620Z,208.13
2022-08-03T08:29:08.819Z,208.13
2022-08-03T08:30:11.541Z,208.13
2022-08-03T08:31:08.677Z,208.13
2022-08-03T08:32:08.608Z,213.75
2022-08-03T08:33:10.495Z,213.75
2022-08-03T08:34:08.472Z,213.75
2022-08-03T08:35:08.400Z,213.75
2022-08-03T08:36:12.000Z,213.75
2022-08-03T08:37:08.265Z,213.75
2022-08-03T08:38:08.196Z,213.75
2022-08-03T08:39:08.125Z,213.75
2022-08-03T08:40:08.055Z,213.75
2022-08-03T08:41:07.984Z,213.75
2022-08-03T08:42:07.917Z,219.38
2022-08-03T08:43:07.850Z,219.38
2022-08-03T08:44:07.779Z,219.38
2022-08-03T08:45:07.707Z,219.38
2022-08-03T08:46:07.645Z,219.38
2022-08-03T08:47:07.571Z,219.38
2022-08-03T08:48:08.422Z,219.38
2022-08-03T08:49:07.501Z,219.38
2022-08-03T08:50:10.338Z,219.38
2022-08-03T08:51:07.296Z,219.38
2022-08-03T08:52:24.983Z,219.38
2022-08-03T08:53:07.163Z,225.00
2022-08-03T08:54:07.101Z,225.00
2022-08-03T08:55:07.024Z,225.00
2022-08-03T08:56:06.955Z,225.00
2022-08-03T08:57:21.329Z,225.00
2022-08-03T08:58:06.819Z,225.00
2022-08-03T08:59:06.751Z,225.00
2022-08-03T09:00:06.685Z,225.00
2022-08-03T09:01:06.667Z,219.38
2022-08-03T09:02:06.550Z,225.00
2022-08-03T09:03:06.488Z,225.00
2022-08-03T09:04:06.415Z,219.38
2022-08-03T09:05:07.615Z,219.38
2022-08-03T09:06:06.280Z,213.75
2022-08-03T09:07:19.691Z,219.38
2022-08-03T09:08:06.144Z,213.75
2022-08-03T09:09:06.076Z,196.88
2022-08-03T09:10:11.623Z,191.25
2022-08-03T09:11:05.946Z,208.13
2022-08-03T09:12:35.388Z,202.50
2022-08-03T09:13:05.811Z,202.50
2022-08-03T09:14:05.744Z,202.50
2022-08-03T09:15:17.027Z,208.13
2022-08-03T09:16:05.607Z,213.75
2022-08-03T09:17:05.542Z,213.75
2022-08-03T09:18:05.476Z,225.00
2022-08-03T09:19:05.406Z,225.00
2022-08-03T09:20:05.341Z,225.00
2022-08-03T09:21:24.240Z,225.00
2022-08-03T09:22:05.208Z,225.00
2022-08-03T09:23:19.143Z,219.38
2022-08-03T09:24:06.330Z,219.38
2022-08-03T09:25:24.307Z,219.38
2022-08-03T09:26:04.938Z,219.38
2022-08-03T09:27:04.872Z,219.38
2022-08-03T09:28:04.813Z,219.38
2022-08-03T09:29:10.909Z,219.38
2022-08-03T09:30:04.672Z,219.38
2022-08-03T09:31:04.612Z,219.38
2022-08-03T09:32:04.546Z,219.38
2022-08-03T09:33:04.486Z,219.38
2022-08-03T09:34:04.412Z,219.38
2022-08-03T09:35:04.344Z,219.38
2022-08-03T09:36:04.283Z,219.38
2022-08-03T09:37:04.236Z,219.38
2022-08-03T09:38:12.263Z,219.38
2022-08-03T09:39:04.078Z,219.38
2022-08-03T09:40:04.015Z,219.38
2022-08-03T09:41:03.948Z,219.38
2022-08-03T09:42:03.885Z,219.38
2022-08-03T09:43:03.816Z,219.38
2022-08-03T09:44:03.750Z,219.38
2022-08-03T09:45:03.688Z,219.38
2022-08-03T09:46:03.633Z,219.38
2022-08-03T09:47:03.549Z,219.38
2022-08-03T09:48:03.493Z,219.38
2022-08-03T09:49:03.475Z,219.38
2022-08-03T09:50:03.353Z,219.38
2022-08-03T09:51:13.424Z,213.75
2022-08-03T09:52:31.952Z,213.75
2022-08-03T09:53:03.161Z,213.75
2022-08-03T09:54:03.096Z,219.38
2022-08-03T09:55:03.029Z,219.38
2022-08-03T09:56:34.516Z,219.38
2022-08-03T09:57:02.897Z,219.38
2022-08-03T09:58:02.835Z,219.38
2022-08-03T09:59:02.772Z,219.38
2022-08-03T10:00:07.944Z,219.38
2022-08-03T10:01:02.709Z,219.38
2022-08-03T10:02:02.573Z,219.38
2022-08-03T10:03:02.511Z,219.38
2022-08-03T10:04:04.212Z,219.38
2022-08-03T10:05:02.378Z,219.38
2022-08-03T10:06:02.311Z,219.38
2022-08-03T10:07:02.251Z,219.38
2022-08-03T10:08:02.185Z,219.38
2022-08-03T10:09:02.117Z,219.38
2022-08-03T10:10:30.872Z,219.38
2022-08-03T10:11:01.990Z,219.38
2022-08-03T10:12:01.922Z,219.38
2022-08-03T10:13:01.862Z,219.38
2022-08-03T10:14:01.799Z,219.38
2022-08-03T10:15:01.730Z,219.38
2022-08-03T10:16:21.276Z,219.38
2022-08-03T10:17:01.601Z,219.38
2022-08-03T10:18:01.538Z,219.38
2022-08-03T10:19:01.470Z,219.38
2022-08-03T10:20:01.408Z,219.38
2022-08-03T10:21:01.346Z,219.38
2022-08-03T10:22:01.282Z,219.38
2022-08-03T10:23:01.216Z,219.38
2022-08-03T10:24:01.152Z,219.38
2022-08-03T10:25:01.086Z,219.38
2022-08-03T10:26:01.024Z,219.38
2022-08-03T10:27:00.958Z,219.38
2022-08-03T10:28:00.891Z,219.38
2022-08-03T10:29:00.830Z,219.38
2022-08-03T10:30:00.762Z,219.38
2022-08-03T10:31:00.701Z,219.38
2022-08-03T10:32:00.639Z,219.38
2022-08-03T10:33:00.573Z,219.38
2022-08-03T10:34:00.546Z,219.38
2022-08-03T10:35:00.479Z,213.75
2022-08-03T10:36:00.383Z,208.13
2022-08-03T10:37:00.319Z,208.13
2022-08-03T10:38:00.250Z,208.13
2022-08-03T10:39:00.186Z,208.13
2022-08-03T10:40:00.157Z,202.50
2022-08-03T10:41:00.058Z,213.75
2022-08-03T10:42:02.697Z,219.38
2022-08-03T10:42:59.935Z,213.75
2022-08-03T10:43:59.881Z,213.75
2022-08-03T10:44:59.810Z,213.75
2022-08-03T10:45:59.747Z,213.75
2022-08-03T10:46:59.684Z,213.75
2022-08-03T10:47:59.616Z,213.75
2022-08-03T10:48:59.594Z,213.75
2022-08-03T10:49:59.482Z,213.75
2022-08-03T10:50:59.418Z,208.13
2022-08-03T10:51:59.357Z,202.50
2022-08-03T10:52:59.294Z,202.50
2022-08-03T10:53:59.231Z,208.13
2022-08-03T10:54:59.164Z,208.13
2022-08-03T10:55:59.106Z,208.13
2022-08-03T10:57:00.333Z,208.13
2022-08-03T10:57:59.247Z,208.13
2022-08-03T10:58:58.910Z,202.50
2022-08-03T10:59:58.864Z,208.13
2022-08-03T11:00:58.870Z,208.13
2022-08-03T11:02:00.651Z,213.75
2022-08-03T11:02:58.660Z,213.75
2022-08-03T11:03:58.596Z,208.13
2022-08-03T11:04:58.529Z,208.13
2022-08-03T11:05:58.464Z,213.75
2022-08-03T11:06:58.404Z,213.75
2022-08-03T11:07:58.340Z,202.50
2022-08-03T11:08:58.282Z,202.50
2022-08-03T11:09:58.211Z,202.50
2022-08-03T11:10:58.157Z,112.50
2022-08-03T11:11:58.088Z,39.38
2022-08-03T11:12:58.022Z,106.88
2022-08-03T11:13:57.963Z,208.13
2022-08-03T11:14:57.896Z,202.50
2022-08-03T11:15:59.800Z,208.13
2022-08-03T11:16:57.777Z,208.13
2022-08-03T11:17:57.709Z,196.88
2022-08-03T11:18:57.646Z,185.63
2022-08-03T11:19:58.575Z,185.63
2022-08-03T11:20:57.521Z,196.88
2022-08-03T11:21:57.453Z,196.88
2022-08-03T11:22:57.391Z,174.38
2022-08-03T11:24:04.987Z,67.50
2022-08-03T11:24:57.268Z,180.00
2022-08-03T11:25:57.204Z,185.63
2022-08-03T11:26:57.141Z,191.25
2022-08-03T11:27:57.076Z,90.00
2022-08-03T11:28:57.022Z,56.25
2022-08-03T11:29:56.950Z,95.63
2022-08-03T11:30:56.889Z,45.00
2022-08-03T11:31:56.859Z,67.50
2022-08-03T11:32:56.761Z,73.13
2022-08-03T11:33:56.699Z,39.38
2022-08-03T11:34:56.636Z,140.63
2022-08-03T11:35:56.572Z,168.75
2022-08-03T11:36:56.508Z,196.88
2022-08-03T11:38:03.345Z,185.63
2022-08-03T11:38:56.386Z,196.88
2022-08-03T11:39:56.321Z,196.88
2022-08-03T11:40:56.256Z,174.38
2022-08-03T11:41:56.192Z,202.50
2022-08-03T11:42:56.130Z,202.50
2022-08-03T11:43:56.069Z,196.88
2022-08-03T11:44:56.010Z,196.88
2022-08-03T11:45:55.941Z,202.50
2022-08-03T11:46:55.881Z,196.88
2022-08-03T11:47:55.812Z,196.88
2022-08-03T11:48:55.816Z,196.88
2022-08-03T11:49:55.692Z,191.25
2022-08-03T11:50:55.625Z,191.25
2022-08-03T11:51:55.561Z,191.25
2022-08-03T11:52:55.502Z,191.25
2022-08-03T11:53:55.438Z,191.25
2022-08-03T11:54:56.918Z,191.25
2022-08-03T11:55:55.310Z,191.25
2022-08-03T11:56:55.252Z,191.25
2022-08-03T11:59:00.776Z,191.25
2022-08-03T11:59:01.447Z,191.25
2022-08-03T11:59:55.060Z,180.00
2022-08-03T12:00:55.001Z,185.63
2022-08-03T12:01:54.933Z,185.63
2022-08-03T12:02:54.938Z,185.63
2022-08-03T12:03:54.807Z,185.63
2022-08-03T12:04:54.746Z,185.63
2022-08-03T12:05:54.908Z,185.63
2022-08-03T12:06:54.623Z,185.63
2022-08-03T12:08:04.149Z,185.63
2022-08-03T12:08:54.493Z,185.63
2022-08-03T12:09:54.428Z,185.63
2022-08-03T12:10:54.368Z,185.63
2022-08-03T12:12:00.654Z,185.63
2022-08-03T12:12:54.247Z,185.63
2022-08-03T12:14:33.069Z,185.63
2022-08-03T12:14:54.118Z,185.63
2022-08-03T12:15:54.057Z,191.25
2022-08-03T12:16:53.993Z,191.25
2022-08-03T12:17:57.733Z,191.25
2022-08-03T12:18:53.866Z,191.25
2022-08-03T12:19:53.801Z,191.25
2022-08-03T12:20:53.740Z,185.63
2022-08-03T12:21:56.877Z,185.63
2022-08-03T12:22:53.617Z,191.25
2022-08-03T12:23:53.548Z,191.25
2022-08-03T12:24:53.856Z,191.25
2022-08-03T12:25:53.424Z,191.25
2022-08-03T12:26:59.330Z,191.25
2022-08-03T12:27:53.300Z,191.25
2022-08-03T12:28:53.242Z,191.25
2022-08-03T12:29:58.359Z,191.25
2022-08-03T12:30:53.115Z,191.25
2022-08-03T12:31:53.046Z,191.25
2022-08-03T12:32:52.989Z,191.25
2022-08-03T12:33:52.922Z,191.25
2022-08-03T12:34:52.866Z,191.25
2022-08-03T12:35:52.819Z,191.25
2022-08-03T12:36:52.744Z,191.25
2022-08-03T12:37:52.673Z,191.25
2022-08-03T12:38:52.613Z,191.25
2022-08-03T12:40:03.027Z,191.25
2022-08-03T12:40:52.488Z,191.25
2022-08-03T12:41:52.427Z,191.25
2022-08-03T12:42:52.373Z,191.25
2022-08-03T12:43:52.299Z,191.25
2022-08-03T12:44:56.484Z,191.25
2022-08-03T12:45:52.173Z,191.25
2022-08-03T12:46:52.117Z,185.63
2022-08-03T12:47:52.050Z,185.63
2022-08-03T12:48:51.993Z,191.25
2022-08-03T12:49:51.930Z,185.63
2022-08-03T12:50:53.790Z,185.63
2022-08-03T12:51:51.801Z,191.25